createdAt,value
2023-09-11T03:28:06.423Z,0.00
2023-09-11T03:29:06.080Z,0.00
2023-09-11T03:46:57.466Z,0.00
2023-09-11T03:47:57.309Z,0.00
2023-09-11T05:02:17.819Z,332.00
2023-09-11T05:03:17.913Z,348.00
2023-09-11T05:05:56.899Z,396.00
2023-09-11T05:06:56.794Z,416.00
2023-09-11T05:07:56.687Z,432.00
2023-09-11T05:09:11.477Z,452.00
2023-09-11T05:09:56.637Z,472.00
2023-09-11T05:10:56.377Z,492.00
2023-09-11T05:11:56.344Z,508.00
2023-09-11T05:12:56.238Z,524.00
2023-09-11T05:13:56.156Z,548.00
2023-09-11T05:14:56.013Z,564.00
2023-09-11T05:15:56.002Z,584.00
2023-09-11T05:16:55.883Z,600.00
2023-09-11T05:18:03.549Z,620.00
2023-09-11T05:20:00.340Z,660.00
2023-09-11T05:21:00.223Z,676.00
2023-09-11T05:22:00.149Z,692.00
2023-09-11T05:23:00.051Z,712.00
2023-09-11T05:23:59.976Z,728.00
2023-09-11T05:24:59.873Z,744.00
2023-09-11T05:25:59.799Z,760.00
2023-09-11T05:26:59.768Z,776.00
2023-09-11T05:27:59.580Z,796.00
2023-09-11T05:28:59.501Z,812.00
2023-09-11T05:29:59.482Z,824.00
2023-09-11T05:30:59.353Z,840.00
2023-09-11T05:31:59.248Z,856.00
2023-09-11T05:32:59.236Z,872.00
2023-09-11T05:33:59.107Z,896.00
2023-09-11T05:34:59.028Z,916.00
2023-09-11T05:35:58.967Z,932.00
2023-09-11T05:36:58.825Z,948.00
2023-09-11T05:37:58.709Z,968.00
2023-09-11T05:38:58.678Z,980.00
2023-09-11T05:39:58.533Z,996.00
2023-09-11T05:40:58.481Z,1012.00
2023-09-11T05:41:58.385Z,1024.00
2023-09-11T05:42:58.325Z,1040.00
2023-09-11T05:43:58.222Z,1052.00
2023-09-11T05:44:58.257Z,1060.00
2023-09-11T05:45:58.057Z,1080.00
2023-09-11T05:46:57.966Z,1096.00
2023-09-11T05:47:57.908Z,1104.00
2023-09-11T05:48:57.934Z,1120.00
2023-09-11T05:49:57.682Z,1128.00
2023-09-11T05:50:57.610Z,1140.00
2023-09-11T05:51:57.556Z,1152.00
2023-09-11T05:52:57.478Z,1164.00
2023-09-11T05:53:57.412Z,1176.00
2023-09-11T05:54:57.262Z,1188.00
2023-09-11T05:55:58.820Z,1196.00
2023-09-11T05:56:57.125Z,1212.00
2023-09-11T05:57:57.022Z,1216.00
2023-09-11T05:58:56.913Z,1228.00
2023-09-11T05:59:56.869Z,1232.00
2023-09-11T06:00:56.842Z,1240.00
2023-09-11T06:01:56.648Z,1240.00
2023-09-11T06:02:56.647Z,1236.00
2023-09-11T06:03:56.573Z,1256.00
2023-09-11T06:04:56.413Z,1272.00
2023-09-11T06:05:56.375Z,1280.00
2023-09-11T06:06:56.219Z,1296.00
2023-09-11T06:07:56.162Z,1308.00
2023-09-11T06:08:56.164Z,1324.00
2023-09-11T06:09:55.963Z,1336.00
2023-09-11T06:10:55.886Z,1364.00
2023-09-11T06:11:55.856Z,1400.00
2023-09-11T06:12:57.155Z,1432.00
2023-09-11T06:13:55.617Z,1460.00
2023-09-11T06:14:55.750Z,1488.00
2023-09-11T06:15:55.520Z,1504.00
2023-09-11T06:16:55.388Z,1512.00
2023-09-11T06:17:55.354Z,1524.00
2023-09-11T06:18:55.258Z,1532.00
2023-09-11T06:19:55.201Z,1544.00
2023-09-11T06:20:55.155Z,1552.00
2023-09-11T06:21:54.969Z,1564.00
2023-09-11T06:22:54.852Z,1572.00
2023-09-11T06:23:54.879Z,1580.00
2023-09-11T06:24:54.693Z,1592.00
2023-09-11T06:25:54.592Z,1596.00
2023-09-11T06:26:54.571Z,1616.00
2023-09-11T06:27:54.464Z,1624.00
2023-09-11T06:28:54.395Z,1640.00
2023-09-11T06:29:54.298Z,1648.00
2023-09-11T06:30:54.178Z,1660.00
2023-09-11T06:31:54.111Z,1668.00
2023-09-11T06:32:54.087Z,1668.00
2023-09-11T06:33:54.063Z,1636.00
2023-09-11T06:34:53.852Z,1684.00
2023-09-11T06:35:53.761Z,1716.00
2023-09-11T06:36:53.683Z,1724.00
2023-09-11T06:37:53.564Z,1732.00
2023-09-11T06:38:53.497Z,1740.00
2023-09-11T06:39:53.428Z,1744.00
2023-09-11T06:40:53.361Z,1744.00
2023-09-11T06:41:53.345Z,1640.00
2023-09-11T06:42:53.176Z,1768.00
2023-09-11T06:43:53.077Z,1776.00
2023-09-11T06:44:53.064Z,1780.00
2023-09-11T06:45:52.971Z,1784.00
2023-09-11T06:46:52.800Z,1792.00
2023-09-11T06:47:52.884Z,1796.00
2023-09-11T06:49:40.826Z,1804.00
2023-09-11T06:50:59.849Z,1816.00
2023-09-11T06:51:59.619Z,1824.00
2023-09-11T06:57:21.755Z,1864.00
2023-09-11T06:58:23.480Z,1872.00
2023-09-11T07:01:54.452Z,1900.00
2023-09-11T07:02:54.392Z,1904.00
2023-09-11T07:06:24.233Z,1928.00
2023-09-11T07:07:17.012Z,1932.00
2023-09-11T07:08:16.962Z,1936.00
2023-09-11T07:09:16.926Z,1944.00
2023-09-11T07:10:19.876Z,1952.00
2023-09-11T07:11:16.705Z,1960.00
2023-09-11T07:12:16.636Z,1964.00
2023-09-11T07:13:16.517Z,1964.00
2023-09-11T07:14:16.452Z,1984.00
2023-09-11T07:15:16.370Z,1988.00
2023-09-11T07:16:16.386Z,1992.00
2023-09-11T07:17:16.223Z,1996.00
2023-09-11T07:18:16.214Z,2008.00
2023-09-11T07:19:16.033Z,2012.00
2023-09-11T07:20:15.949Z,2012.00
2023-09-11T07:21:15.849Z,2016.00
2023-09-11T07:22:15.761Z,1876.00
2023-09-11T07:23:15.675Z,1972.00
2023-09-11T07:24:15.596Z,2004.00
2023-09-11T07:25:15.522Z,1964.00
2023-09-11T07:26:15.424Z,2000.00
2023-09-11T07:27:15.350Z,2008.00
2023-09-11T07:28:16.170Z,2064.00
2023-09-11T07:29:15.177Z,2072.00
2023-09-11T07:30:15.082Z,2080.00
2023-09-11T07:31:15.052Z,2080.00
2023-09-11T07:32:14.923Z,2092.00
2023-09-11T07:33:14.953Z,2104.00
2023-09-11T07:34:14.756Z,2104.00
2023-09-11T07:35:14.674Z,2116.00
2023-09-11T07:36:14.675Z,2120.00
2023-09-11T07:37:14.512Z,2124.00
2023-09-11T07:38:14.437Z,2128.00
2023-09-11T07:39:14.359Z,2132.00
2023-09-11T07:40:14.269Z,2136.00
2023-09-11T07:41:14.173Z,2140.00
2023-09-11T07:42:14.132Z,2124.00
2023-09-11T07:43:14.020Z,2148.00
2023-09-11T07:44:13.944Z,2152.00
2023-09-11T07:45:14.029Z,2156.00
2023-09-11T07:46:13.802Z,2160.00
2023-09-11T07:47:13.669Z,2152.00
2023-09-11T07:48:13.687Z,2148.00
2023-09-11T07:49:13.506Z,2100.00
2023-09-11T07:50:13.435Z,2080.00
2023-09-11T07:51:13.430Z,2048.00
2023-09-11T07:52:13.262Z,2056.00
2023-09-11T07:53:13.184Z,2056.00
2023-09-11T07:54:13.160Z,2072.00
2023-09-11T07:55:13.055Z,2148.00
2023-09-11T07:56:12.983Z,2148.00
2023-09-11T07:57:12.852Z,2144.00
2023-09-11T07:58:12.777Z,2196.00
2023-09-11T07:59:12.678Z,2268.00
2023-09-11T08:00:12.649Z,2276.00
2023-09-11T08:01:12.671Z,2272.00
2023-09-11T08:02:12.444Z,2272.00
2023-09-11T08:03:12.565Z,2288.00
2023-09-11T08:04:12.498Z,2296.00
2023-09-11T08:05:12.191Z,2300.00
2023-09-11T08:06:12.158Z,2284.00
2023-09-11T08:07:12.036Z,2272.00
2023-09-11T08:08:11.987Z,2292.00
2023-09-11T08:09:11.921Z,2308.00
2023-09-11T08:10:11.768Z,2328.00
2023-09-11T08:11:11.690Z,2336.00
2023-09-11T08:12:11.645Z,2344.00
2023-09-11T08:13:11.543Z,2336.00
2023-09-11T08:14:11.459Z,2296.00
2023-09-11T08:15:11.436Z,2256.00
2023-09-11T08:16:11.365Z,2320.00
2023-09-11T08:17:12.124Z,2352.00
2023-09-11T08:18:11.260Z,2404.00
2023-09-11T08:19:11.043Z,2420.00
2023-09-11T08:20:10.976Z,2436.00
2023-09-11T08:21:10.896Z,2420.00
2023-09-11T08:22:10.800Z,2456.00
2023-09-11T08:23:10.713Z,2468.00
2023-09-11T08:24:10.728Z,2468.00
2023-09-11T08:25:10.553Z,2488.00
2023-09-11T08:26:10.464Z,2492.00
2023-09-11T08:28:10.299Z,2508.00
2023-09-11T08:29:10.225Z,2508.00
2023-09-11T08:30:10.165Z,2512.00
2023-09-11T08:31:10.075Z,2524.00
2023-09-11T08:32:09.994Z,2512.00
2023-09-11T08:33:09.979Z,2408.00
2023-09-11T08:34:09.910Z,2484.00
2023-09-11T08:35:09.746Z,2548.00
2023-09-11T08:36:09.686Z,2564.00
2023-09-11T08:37:09.565Z,2576.00
2023-09-11T08:38:09.493Z,2580.00
2023-09-11T08:39:09.412Z,2588.00
2023-09-11T08:40:09.342Z,2596.00
2023-09-11T08:41:09.236Z,2608.00
2023-09-11T08:42:09.179Z,2612.00
2023-09-11T08:43:09.083Z,2624.00
2023-09-11T08:44:08.998Z,2624.00
2023-09-11T08:45:08.927Z,2628.00
2023-09-11T08:46:08.929Z,2636.00
2023-09-11T08:47:08.751Z,2644.00
2023-09-11T08:48:08.770Z,2652.00
2023-09-11T08:49:08.600Z,2660.00
2023-09-11T08:50:08.511Z,2664.00
2023-09-11T08:51:08.472Z,2672.00
2023-09-11T08:52:08.346Z,2680.00
2023-09-11T08:53:08.267Z,2684.00
2023-09-11T08:54:08.420Z,2692.00
2023-09-11T08:55:08.128Z,2696.00
2023-09-11T08:56:08.041Z,2704.00
2023-09-11T08:57:08.302Z,2708.00
2023-09-11T08:58:07.893Z,2716.00
2023-09-11T08:59:07.796Z,2720.00
2023-09-11T09:00:07.752Z,2724.00
2023-09-11T09:01:07.660Z,2728.00
2023-09-11T09:02:07.556Z,2728.00
2023-09-11T09:03:07.624Z,2732.00
2023-09-11T09:04:07.535Z,2732.00
2023-09-11T09:05:07.330Z,2740.00
2023-09-11T09:06:07.306Z,2748.00
2023-09-11T09:07:07.144Z,2744.00
2023-09-11T09:08:07.077Z,2740.00
2023-09-11T09:09:07.013Z,2752.00
2023-09-11T09:10:06.900Z,2752.00
2023-09-11T09:11:06.809Z,2756.00
2023-09-11T09:12:06.795Z,2756.00
2023-09-11T09:13:06.672Z,2760.00
2023-09-11T09:14:06.592Z,2760.00
2023-09-11T09:15:06.512Z,2768.00
2023-09-11T09:16:06.423Z,2772.00
2023-09-11T09:17:06.333Z,2768.00
2023-09-11T09:18:06.323Z,2780.00
2023-09-11T09:19:06.233Z,2780.00
2023-09-11T09:20:06.091Z,2788.00
2023-09-11T09:21:06.008Z,2784.00
2023-09-11T09:22:05.963Z,2788.00
2023-09-11T09:23:05.858Z,2792.00
2023-09-11T09:24:05.793Z,2788.00
2023-09-11T09:25:05.686Z,2788.00
2023-09-11T09:26:05.623Z,2796.00
2023-09-11T09:27:05.591Z,2796.00
2023-09-11T09:28:05.454Z,2800.00
2023-09-11T09:29:05.361Z,2796.00
2023-09-11T09:30:05.340Z,2800.00
2023-09-11T09:31:05.281Z,2796.00
2023-09-11T09:32:05.145Z,2804.00
2023-09-11T09:33:05.133Z,2800.00
2023-09-11T09:34:04.960Z,2800.00
2023-09-11T09:35:04.904Z,2808.00
2023-09-11T09:36:04.860Z,2816.00
2023-09-11T09:37:04.767Z,2820.00
2023-09-11T09:38:04.652Z,2804.00
2023-09-11T09:39:04.664Z,2816.00
2023-09-11T09:40:04.486Z,2812.00
2023-09-11T09:41:04.419Z,2812.00
2023-09-11T09:42:04.391Z,2816.00
2023-09-11T09:43:04.244Z,2824.00
2023-09-11T09:44:04.187Z,2820.00
2023-09-11T09:45:04.182Z,2820.00
2023-09-11T09:46:04.045Z,2824.00
2023-09-11T09:47:04.517Z,2832.00
2023-09-11T09:48:03.957Z,2832.00
2023-09-11T09:49:03.847Z,2836.00
2023-09-11T09:50:03.729Z,2824.00
2023-09-11T09:51:03.785Z,2828.00
2023-09-11T09:52:03.523Z,2844.00
2023-09-11T09:53:03.481Z,2836.00
2023-09-11T09:54:03.415Z,2828.00
2023-09-11T09:55:03.320Z,2844.00
2023-09-11T09:56:03.258Z,2844.00
2023-09-11T09:57:03.251Z,2848.00
2023-09-11T09:58:03.054Z,2852.00
2023-09-11T09:59:02.963Z,2844.00
2023-09-11T10:00:02.903Z,2856.00
2023-09-11T10:01:02.827Z,2828.00
2023-09-11T10:02:02.785Z,2852.00
2023-09-11T10:03:02.719Z,2852.00
2023-09-11T10:04:02.646Z,2848.00
2023-09-11T10:05:02.538Z,2848.00
2023-09-11T10:06:02.511Z,2848.00
2023-09-11T10:07:02.324Z,2860.00
2023-09-11T10:08:02.259Z,2860.00
2023-09-11T10:09:02.300Z,2904.00
2023-09-11T10:10:02.096Z,2856.00
2023-09-11T10:11:02.035Z,2860.00
2023-09-11T10:12:01.933Z,2848.00
2023-09-11T10:13:01.872Z,2840.00
2023-09-11T10:14:01.778Z,2852.00
2023-09-11T10:15:01.741Z,2852.00
2023-09-11T10:16:01.668Z,2848.00
2023-09-11T10:17:01.553Z,2832.00
2023-09-11T10:18:01.513Z,2840.00
2023-09-11T10:19:01.404Z,2840.00
2023-09-11T10:20:01.291Z,2820.00
2023-09-11T10:21:01.235Z,2840.00
2023-09-11T10:22:01.129Z,2836.00
2023-09-11T10:23:01.082Z,2832.00
2023-09-11T10:24:01.020Z,2828.00
2023-09-11T10:25:00.900Z,2824.00
2023-09-11T10:26:00.818Z,2840.00
2023-09-11T10:27:00.888Z,2836.00
2023-09-11T10:28:00.676Z,2832.00
2023-09-11T10:29:00.585Z,2808.00
2023-09-11T10:30:00.533Z,2816.00
2023-09-11T10:32:00.387Z,2820.00
2023-09-11T10:33:00.284Z,2808.00
2023-09-11T10:34:00.353Z,2816.00
2023-09-11T10:35:00.114Z,2808.00
2023-09-11T10:36:00.069Z,2800.00
2023-09-11T10:36:59.941Z,2784.00
2023-09-11T10:37:59.853Z,2780.00
2023-09-11T10:38:59.832Z,2760.00
2023-09-11T10:39:59.693Z,2788.00
2023-09-11T10:40:59.623Z,2788.00
2023-09-11T10:41:59.579Z,2800.00
2023-09-11T10:42:59.474Z,2804.00
2023-09-11T10:43:59.390Z,2796.00
2023-09-11T10:44:59.333Z,2796.00
2023-09-11T10:45:59.249Z,2788.00
2023-09-11T10:46:59.169Z,2796.00
2023-09-11T10:47:59.272Z,2792.00
2023-09-11T10:48:58.980Z,2792.00
2023-09-11T10:49:58.946Z,2776.00
2023-09-11T10:50:58.912Z,2772.00
2023-09-11T10:51:58.760Z,2768.00
2023-09-11T10:52:58.703Z,2768.00
2023-09-11T10:53:58.620Z,2760.00
2023-09-11T10:54:58.551Z,2768.00
2023-09-11T10:55:58.482Z,2768.00
2023-09-11T10:56:58.431Z,2776.00
2023-09-11T10:57:58.279Z,2788.00
2023-09-11T10:58:58.200Z,2792.00
2023-09-11T10:59:58.198Z,2772.00
2023-09-11T11:00:58.065Z,2784.00
2023-09-11T11:01:57.964Z,2776.00
2023-09-11T11:02:58.013Z,2780.00
2023-09-11T11:03:57.987Z,2784.00
2023-09-11T11:04:57.755Z,2756.00
2023-09-11T11:05:57.652Z,2808.00
2023-09-11T11:06:57.566Z,2684.00
2023-09-11T11:07:57.478Z,2780.00
2023-09-11T11:08:57.514Z,2792.00
2023-09-11T11:09:57.361Z,2820.00
2023-09-11T11:10:57.277Z,2800.00
2023-09-11T11:11:57.202Z,2804.00
2023-09-11T11:12:57.169Z,2816.00
2023-09-11T11:13:57.009Z,2788.00
2023-09-11T11:15:11.671Z,2840.00
2023-09-11T11:15:56.968Z,2848.00
2023-09-11T11:16:56.787Z,2852.00
2023-09-11T11:17:56.786Z,2840.00
2023-09-11T11:18:56.621Z,2828.00
2023-09-11T11:19:56.581Z,2864.00
2023-09-11T11:20:56.473Z,2872.00
2023-09-11T11:21:56.391Z,2876.00
2023-09-11T11:22:56.302Z,2884.00
2023-09-11T11:23:56.285Z,2896.00
2023-09-11T11:24:56.234Z,2908.00
2023-09-11T11:25:56.085Z,2924.00
2023-09-11T11:26:56.081Z,2864.00
2023-09-11T11:27:55.919Z,2928.00
2023-09-11T11:28:55.833Z,2912.00
2023-09-11T11:29:55.868Z,2960.00
2023-09-11T11:30:55.677Z,2956.00
2023-09-11T11:31:55.585Z,2964.00
2023-09-11T11:32:55.670Z,2956.00
2023-09-11T11:33:55.567Z,2984.00
2023-09-11T11:34:55.347Z,3012.00
2023-09-11T11:35:55.294Z,2924.00
2023-09-11T11:36:55.198Z,2944.00
2023-09-11T11:37:55.137Z,2936.00
2023-09-11T11:38:55.070Z,2912.00
2023-09-11T11:39:54.976Z,2828.00
2023-09-11T11:40:54.882Z,2900.00
2023-09-11T11:41:54.869Z,2936.00
2023-09-11T11:42:54.737Z,3024.00
2023-09-11T11:43:54.668Z,2884.00
2023-09-11T11:44:54.589Z,2824.00
2023-09-11T11:45:54.492Z,3024.00
2023-09-11T11:46:54.514Z,3024.00
2023-09-11T11:47:54.384Z,3080.00
2023-09-11T11:48:54.328Z,3096.00
2023-09-11T11:49:54.210Z,3080.00
2023-09-11T11:50:54.110Z,3072.00
2023-09-11T11:51:54.016Z,3056.00
2023-09-11T11:52:53.936Z,3080.00
2023-09-11T11:53:53.951Z,2996.00
2023-09-11T11:54:53.786Z,2952.00
2023-09-11T11:55:53.700Z,3016.00
2023-09-11T11:56:53.653Z,2988.00
2023-09-11T11:57:53.692Z,2976.00
2023-09-11T11:58:53.464Z,2952.00
2023-09-11T11:59:53.425Z,3036.00
2023-09-11T12:00:53.344Z,3060.00
2023-09-11T12:01:53.237Z,3016.00
2023-09-11T12:02:53.330Z,2960.00
2023-09-11T12:03:53.163Z,2996.00
2023-09-11T12:04:53.111Z,3048.00
2023-09-11T12:05:52.928Z,3096.00
2023-09-11T12:06:52.828Z,3080.00
2023-09-11T12:07:52.758Z,3136.00
2023-09-11T12:08:52.752Z,3148.00
2023-09-11T12:09:52.624Z,3076.00
2023-09-11T12:10:52.520Z,3064.00
2023-09-11T12:11:52.492Z,2956.00
2023-09-11T12:12:52.371Z,3120.00
2023-09-11T12:13:52.278Z,3188.00
2023-09-11T12:14:52.322Z,3160.00
2023-09-11T12:15:52.122Z,3104.00
2023-09-11T12:16:52.060Z,3316.00
2023-09-11T12:17:52.069Z,3300.00
2023-09-11T12:18:51.940Z,3316.00
2023-09-11T12:19:51.808Z,3292.00
2023-09-11T12:20:54.289Z,3284.00
2023-09-11T12:21:51.684Z,3276.00
2023-09-11T12:22:51.574Z,3224.00
2023-09-11T12:23:51.537Z,3252.00
2023-09-11T12:24:51.433Z,3308.00
2023-09-11T12:25:51.362Z,3324.00
2023-09-11T12:26:51.274Z,3344.00
2023-09-11T12:27:51.183Z,3344.00
2023-09-11T12:28:51.115Z,3284.00
2023-09-11T12:29:51.049Z,3224.00
2023-09-11T12:30:50.988Z,3264.00
2023-09-11T12:31:50.873Z,3272.00
2023-09-11T12:32:50.946Z,3300.00
2023-09-11T12:33:50.783Z,3276.00
2023-09-11T12:34:50.630Z,3216.00
2023-09-11T12:35:50.590Z,3068.00
2023-09-11T12:36:50.486Z,3048.00
2023-09-11T12:37:50.402Z,2884.00
2023-09-11T12:38:50.380Z,2844.00
2023-09-11T12:39:50.243Z,2928.00
2023-09-11T12:40:50.162Z,2900.00
2023-09-11T12:41:50.134Z,2944.00
2023-09-11T12:42:50.118Z,3012.00
2023-09-11T12:43:49.940Z,3104.00
2023-09-11T12:44:49.879Z,3148.00
2023-09-11T12:45:49.784Z,3164.00
2023-09-11T12:46:49.744Z,3152.00
2023-09-11T12:47:49.684Z,3104.00
2023-09-11T12:48:49.686Z,3192.00
2023-09-11T12:49:49.482Z,3168.00
2023-09-11T12:50:49.398Z,3068.00
2023-09-11T12:51:49.331Z,3148.00
2023-09-11T12:52:49.254Z,2904.00
2023-09-11T12:53:49.193Z,2856.00
2023-09-11T12:54:49.079Z,2916.00
2023-09-11T12:55:49.001Z,3008.00
2023-09-11T12:56:48.933Z,3008.00
2023-09-11T12:57:48.839Z,3132.00
2023-09-11T12:58:48.769Z,3172.00
2023-09-11T12:59:48.727Z,3248.00
2023-09-11T13:00:48.664Z,3180.00
2023-09-11T13:01:48.553Z,3260.00
2023-09-11T13:02:48.609Z,3352.00
2023-09-11T13:03:48.412Z,3372.00
2023-09-11T13:04:48.299Z,3360.00
2023-09-11T13:05:48.226Z,3376.00
2023-09-11T13:06:48.122Z,3372.00
2023-09-11T13:07:48.054Z,3300.00
2023-09-11T13:08:48.030Z,3152.00
2023-09-11T13:09:47.931Z,3200.00
2023-09-11T13:10:47.838Z,3244.00
2023-09-11T13:11:47.749Z,3292.00
2023-09-11T13:12:47.689Z,3368.00
2023-09-11T13:13:53.298Z,3440.00
2023-09-11T13:14:47.533Z,3484.00
2023-09-11T13:15:47.429Z,3568.00
2023-09-11T13:16:47.425Z,3512.00
2023-09-11T13:17:47.386Z,3532.00
2023-09-11T13:18:55.459Z,3568.00
2023-09-11T13:20:51.869Z,3604.00
2023-09-11T13:21:51.695Z,3616.00
2023-09-11T13:22:51.663Z,3612.00
2023-09-11T13:23:51.615Z,3648.00
2023-09-11T13:24:51.454Z,3664.00
2023-09-11T13:25:51.350Z,3684.00
2023-09-11T13:26:51.297Z,3668.00
2023-09-11T13:27:51.195Z,3684.00
2023-09-11T13:28:51.118Z,3676.00
2023-09-11T13:29:51.067Z,3692.00
2023-09-11T13:30:50.989Z,3700.00
2023-09-11T13:31:50.878Z,3684.00
2023-09-11T13:32:50.928Z,3684.00
2023-09-11T13:33:50.825Z,3712.00
2023-09-11T13:34:50.659Z,3692.00
2023-09-11T13:35:50.587Z,3704.00
2023-09-11T13:36:50.507Z,3732.00
2023-09-11T13:37:50.411Z,3732.00
2023-09-11T13:38:50.367Z,3744.00
2023-09-11T13:39:50.264Z,3780.00
2023-09-11T13:40:50.174Z,3792.00
2023-09-11T13:41:50.157Z,3780.00
2023-09-11T13:42:50.033Z,3784.00
2023-09-11T13:43:49.951Z,3792.00
2023-09-11T13:44:50.171Z,3784.00
2023-09-11T13:45:49.810Z,3796.00
2023-09-11T13:46:49.725Z,3804.00
2023-09-11T13:47:49.716Z,3796.00
2023-09-11T13:48:49.595Z,3800.00
2023-09-11T13:49:49.525Z,3800.00
2023-09-11T13:50:49.462Z,3816.00
2023-09-11T13:51:49.348Z,3820.00
2023-09-11T13:52:49.269Z,3836.00
2023-09-11T13:53:49.199Z,3848.00
2023-09-11T13:54:49.110Z,3840.00
2023-09-11T13:55:49.017Z,3836.00
2023-09-11T13:56:48.964Z,3856.00
2023-09-11T13:57:48.864Z,3864.00
2023-09-11T13:58:50.270Z,3884.00
2023-09-11T13:59:48.779Z,3900.00
2023-09-11T14:00:48.623Z,3924.00
2023-09-11T14:01:48.680Z,3880.00
2023-09-11T14:02:48.581Z,3904.00
2023-09-11T14:03:48.620Z,3896.00
2023-09-11T14:04:48.499Z,3900.00
2023-09-11T14:05:48.392Z,3904.00
2023-09-11T14:06:48.157Z,3896.00
2023-09-11T14:07:48.108Z,3916.00
2023-09-11T14:08:48.028Z,3928.00
2023-09-11T14:09:47.924Z,3984.00
2023-09-11T14:10:47.861Z,3816.00
2023-09-11T14:11:47.803Z,3732.00
2023-09-11T14:12:47.725Z,3728.00
2023-09-11T14:13:47.637Z,3964.00
2023-09-11T14:14:47.722Z,3960.00
2023-09-11T14:15:47.454Z,3944.00
2023-09-11T14:16:47.404Z,3992.00
2023-09-11T14:17:47.325Z,4008.00
2023-09-11T14:18:47.600Z,4020.00
2023-09-11T14:19:47.173Z,4020.00
2023-09-11T14:20:47.116Z,4044.00
2023-09-11T14:21:47.011Z,4088.00
2023-09-11T14:22:46.927Z,4088.00
2023-09-11T14:23:46.837Z,4076.00
2023-09-11T14:24:46.772Z,4104.00
2023-09-11T14:25:46.753Z,4132.00
2023-09-11T14:26:46.663Z,4144.00
2023-09-11T14:27:46.590Z,4164.00
2023-09-11T14:28:46.466Z,4188.00
2023-09-11T14:29:46.420Z,4200.00
2023-09-11T14:30:46.421Z,4244.00
2023-09-11T14:31:46.283Z,4272.00
2023-09-11T14:32:46.247Z,4268.00
2023-09-11T14:33:46.118Z,4288.00
2023-09-11T14:34:45.992Z,4320.00
2023-09-11T14:35:46.021Z,4340.00
2023-09-11T14:36:45.913Z,4348.00
2023-09-11T14:37:46.092Z,4368.00
2023-09-11T14:38:45.717Z,4368.00
2023-09-11T14:39:45.629Z,4384.00
2023-09-11T14:40:45.518Z,4368.00
2023-09-11T14:41:45.531Z,4376.00
2023-09-11T14:42:46.395Z,4384.00
2023-09-11T14:43:45.275Z,4412.00
2023-09-11T14:44:45.235Z,4412.00
2023-09-11T14:45:45.229Z,4424.00
2023-09-11T14:46:45.096Z,4436.00
2023-09-11T14:47:45.013Z,4444.00
2023-09-11T14:48:45.374Z,4464.00
2023-09-11T14:49:44.863Z,4460.00
2023-09-11T14:50:44.841Z,4472.00
2023-09-11T14:51:44.736Z,4456.00
2023-09-11T14:52:44.570Z,4464.00
2023-09-11T14:53:44.570Z,4476.00
2023-09-11T14:54:53.587Z,4496.00
2023-09-11T14:55:44.355Z,4520.00
2023-09-11T14:56:44.367Z,4548.00
2023-09-11T14:57:44.255Z,4568.00
2023-09-11T14:58:44.467Z,4592.00
2023-09-11T14:59:44.126Z,4620.00
2023-09-11T15:00:43.952Z,4664.00
2023-09-11T15:01:43.885Z,4660.00
2023-09-11T15:02:43.975Z,4692.00
2023-09-11T15:03:43.912Z,4724.00
2023-09-11T15:04:49.420Z,4756.00
2023-09-11T15:05:43.667Z,4788.00
2023-09-11T15:06:43.505Z,4824.00
2023-09-11T15:07:43.409Z,4868.00
2023-09-11T15:08:43.797Z,4916.00
2023-09-11T15:09:43.337Z,4980.00
2023-09-11T15:10:43.228Z,5060.00
2023-09-11T15:11:43.215Z,5156.00
2023-09-11T15:12:43.115Z,5260.00
2023-09-11T15:13:43.437Z,5344.00
2023-09-11T15:14:43.220Z,5464.00
2023-09-11T15:15:43.036Z,5544.00
2023-09-11T15:16:42.799Z,5640.00
2023-09-11T15:17:42.920Z,5720.00
2023-09-11T15:18:43.059Z,5812.00
2023-09-11T15:19:42.530Z,5892.00
2023-09-11T15:20:42.463Z,6016.00
2023-09-11T15:21:42.350Z,6120.00
2023-09-11T15:22:42.297Z,6220.00
2023-09-11T15:23:42.261Z,6292.00
2023-09-11T15:24:42.130Z,6376.00
2023-09-11T15:25:42.063Z,6428.00
2023-09-11T15:26:41.967Z,6492.00
2023-09-11T15:27:41.893Z,6576.00
2023-09-11T15:28:41.978Z,6648.00
2023-09-11T15:29:41.811Z,6740.00
2023-09-11T15:30:41.640Z,6820.00
2023-09-11T15:31:42.096Z,6912.00
2023-09-11T15:32:41.578Z,6984.00
2023-09-11T15:33:41.464Z,7052.00
2023-09-11T15:34:41.539Z,7140.00
2023-09-11T15:35:41.373Z,7220.00
2023-09-11T15:36:41.239Z,7332.00
2023-09-11T15:37:41.115Z,7456.00
2023-09-11T15:38:41.302Z,7588.00
2023-09-11T15:39:41.032Z,7788.00
2023-09-11T15:40:40.932Z,7972.00
2023-09-11T15:41:40.804Z,8184.00
2023-09-11T15:42:40.743Z,8304.00
2023-09-11T15:43:40.666Z,8592.00
2023-09-11T15:44:40.626Z,9604.00
2023-09-11T15:45:40.548Z,19360.00
2023-09-11T15:46:41.845Z,38784.00
2023-09-11T15:47:40.417Z,52032.00
2023-09-11T15:48:40.468Z,52192.00
2023-09-11T15:49:40.214Z,53408.00
2023-09-11T15:50:40.223Z,52640.00
2023-09-11T15:51:40.056Z,50112.00
2023-09-11T15:52:39.966Z,48832.00
2023-09-11T15:53:39.935Z,49408.00
2023-09-11T15:54:39.829Z,52544.00
2023-09-11T15:55:39.818Z,54464.00
2023-09-11T15:56:39.678Z,55232.00
2023-09-11T15:57:39.600Z,54240.00
2023-09-11T15:58:39.834Z,53824.00
2023-09-11T15:59:39.449Z,52096.00
2023-09-11T16:00:39.421Z,50976.00
2023-09-11T16:01:39.331Z,49824.00
2023-09-11T16:02:39.370Z,49408.00
2023-09-11T16:03:39.263Z,49696.00
2023-09-11T16:04:39.231Z,48864.00
2023-09-11T16:05:39.033Z,47232.00
2023-09-11T16:06:38.954Z,46560.00
2023-09-11T16:07:38.849Z,43008.00
2023-09-11T16:08:39.041Z,35648.00
2023-09-11T16:09:38.735Z,25664.00
2023-09-11T16:10:38.656Z,15648.00
2023-09-11T16:11:38.620Z,22880.00
2023-09-11T16:12:38.527Z,23104.00
2023-09-11T16:13:38.438Z,24544.00
2023-09-11T16:14:38.344Z,36288.00
2023-09-11T16:15:38.367Z,33664.00
2023-09-11T16:16:38.195Z,17760.00
2023-09-11T16:17:38.198Z,8992.00
2023-09-11T16:18:38.120Z,10560.00
2023-09-11T16:19:38.001Z,14104.00
2023-09-11T16:20:37.894Z,9784.00
2023-09-11T16:21:40.909Z,5448.00
2023-09-11T16:22:37.774Z,4980.00
2023-09-11T16:23:37.685Z,5336.00
2023-09-11T16:24:37.611Z,6972.00
2023-09-11T16:25:37.554Z,7296.00
2023-09-11T16:26:37.524Z,5024.00
2023-09-11T16:27:37.421Z,4880.00
2023-09-11T16:28:37.300Z,4808.00
2023-09-11T16:29:37.300Z,4780.00
2023-09-11T16:30:37.193Z,4972.00
2023-09-11T16:31:37.199Z,10736.00
2023-09-11T16:32:36.998Z,16064.00
2023-09-11T16:33:36.976Z,14912.00
2023-09-11T16:34:36.880Z,16256.00
2023-09-11T16:35:36.794Z,11428.00
2023-09-11T16:36:36.762Z,5488.00
2023-09-11T16:37:36.624Z,4876.00
2023-09-11T16:38:36.581Z,6752.00
2023-09-11T16:39:36.489Z,7408.00
2023-09-11T16:40:36.413Z,4036.00
2023-09-11T16:41:36.353Z,3928.00
2023-09-11T16:42:36.274Z,3844.00
2023-09-11T16:43:36.204Z,3740.00
2023-09-11T16:44:36.089Z,3628.00
2023-09-11T16:45:36.059Z,3540.00
2023-09-11T16:46:35.967Z,3480.00
2023-09-11T16:47:35.902Z,3432.00
2023-09-11T16:48:35.863Z,3372.00
2023-09-11T16:49:35.725Z,3280.00
2023-09-11T16:50:35.631Z,3100.00
2023-09-11T16:51:35.623Z,2860.00
2023-09-11T16:52:35.470Z,2668.00
2023-09-11T16:53:35.437Z,2560.00
2023-09-11T16:54:35.363Z,2516.00
2023-09-11T16:55:35.267Z,2512.00
2023-09-11T16:56:35.164Z,2504.00
2023-09-11T16:57:35.102Z,2480.00
2023-09-11T16:58:35.036Z,2424.00
2023-09-11T16:59:34.988Z,2316.00
2023-09-11T17:00:34.995Z,2144.00
2023-09-11T17:01:34.817Z,1956.00
2023-09-11T17:02:34.722Z,1816.00
2023-09-11T17:03:34.810Z,1712.00
2023-09-11T17:04:34.593Z,1604.00
2023-09-11T17:05:34.476Z,1496.00
2023-09-11T17:06:34.425Z,1404.00
2023-09-11T17:07:34.308Z,1340.00
2023-09-11T17:08:34.249Z,1288.00
2023-09-11T17:09:34.170Z,1220.00
2023-09-11T17:10:34.081Z,1140.00
2023-09-11T17:11:34.004Z,1060.00
2023-09-11T17:12:33.964Z,992.00
2023-09-11T17:13:33.850Z,948.00
2023-09-11T17:14:33.810Z,916.00
2023-09-11T17:15:33.745Z,892.00
2023-09-11T17:16:33.705Z,864.00
2023-09-11T17:17:33.532Z,820.00
2023-09-11T17:18:33.579Z,772.00
2023-09-11T17:19:33.404Z,732.00